Terminal Aerodrome Forecast
Issued by NWS Charleston, WV

Home | Current Version | Previous Version | Text Only | Print | Product List | Glossary On
Versions: 1 2 3 4 5 6 7 8 9 10 11 12 13 14 15 16 17 18 19 20 21 22 23 24 25
000
FTUS41 KRLX 271700
TAFPKB
TAF
KPKB 271720Z 2718/2818 26004KT P6SM SCT040
     FM271900 27004KT P6SM VCTS SCT040CB
     FM280200 VRB03KT P6SM SCT045
     FM280600 01004KT 6SM BR SCT020
     FM280800 VRB03KT 3SM BR SCT020
     FM281000 VRB03KT 1SM BR SCT001 SCT020
     FM281200 00000KT 2SM BR SCT025
     FM281400 VRB03KT P6SM SCT045=

USA.gov is the U.S. government's official web portal to all federal, state and local government web resources and services.